createdAt,value
2022-09-04T00:00:28.690Z,101298.63
2022-09-04T00:01:17.788Z,101292.16
2022-09-04T00:02:13.304Z,101298.69
2022-09-04T00:03:03.373Z,101290.38
2022-09-04T00:03:54.440Z,101294.81
2022-09-04T00:04:44.729Z,101286.66
2022-09-04T00:05:35.297Z,101290.56
2022-09-04T00:06:14.762Z,101290.56
2022-09-04T00:06:59.845Z,101296.53
2022-09-04T00:07:40.377Z,101295.94
2022-09-04T00:08:23.703Z,101291.72
2022-09-04T00:09:05.611Z,101286.97
2022-09-04T00:09:42.821Z,101285.19
2022-09-04T00:10:19.479Z,101290.25
2022-09-04T00:11:05.134Z,101291.88
2022-09-04T00:11:47.561Z,101293.38
2022-09-04T00:12:26.954Z,101282.84
2022-09-04T00:13:18.532Z,101282.84
2022-09-04T00:13:57.531Z,101289.75
2022-09-04T00:14:36.027Z,101284.47
2022-09-04T00:15:13.711Z,101292.19
2022-09-04T00:15:51.891Z,101287.66
2022-09-04T00:16:29.005Z,101289.63
2022-09-04T00:17:04.126Z,101291.31
2022-09-04T00:17:44.980Z,101290.00
2022-09-04T00:18:25.626Z,101283.19
2022-09-04T00:19:05.360Z,101281.06
2022-09-04T00:19:41.232Z,101285.13
2022-09-04T00:20:50.961Z,101291.06
2022-09-04T00:21:38.874Z,101290.50
2022-09-04T00:22:23.225Z,101294.25
2022-09-04T00:23:00.519Z,101299.06
2022-09-04T00:23:38.430Z,101296.38
2022-09-04T00:24:18.961Z,101298.97
2022-09-04T00:25:01.972Z,101293.69
2022-09-04T00:25:40.507Z,101299.53
2022-09-04T00:26:30.417Z,101292.53
2022-09-04T00:27:16.934Z,101293.59
2022-09-04T00:27:52.191Z,101299.66
2022-09-04T00:28:41.231Z,101299.72
2022-09-04T00:29:38.081Z,101299.72
2022-09-04T00:30:20.398Z,101307.69
2022-09-04T00:31:19.578Z,101308.69
2022-09-04T00:31:56.642Z,101306.00
2022-09-04T00:32:31.473Z,101300.88
2022-09-04T00:33:19.392Z,101310.44
2022-09-04T00:34:00.741Z,101308.97
2022-09-04T00:34:55.516Z,101305.72
2022-09-04T00:35:34.005Z,101315.34
2022-09-04T00:36:06.531Z,101306.94
2022-09-04T00:36:46.952Z,101312.06
2022-09-04T00:37:24.164Z,101319.25
2022-09-04T00:38:00.491Z,101320.31
2022-09-04T00:38:34.179Z,101319.47
2022-09-04T00:39:28.347Z,101315.97
2022-09-04T00:40:31.362Z,101317.75
2022-09-04T00:41:16.650Z,101319.38
2022-09-04T00:42:12.708Z,101317.38
2022-09-04T00:43:11.740Z,101317.69
2022-09-04T00:44:17.738Z,101317.94
2022-09-04T00:44:57.663Z,101314.75
2022-09-04T00:45:41.202Z,101320.31
2022-09-04T00:46:31.247Z,101325.59
2022-09-04T00:47:09.477Z,101325.84
2022-09-04T00:48:06.175Z,101323.41
2022-09-04T00:49:25.190Z,101322.81
2022-09-04T00:50:11.968Z,101328.78
2022-09-04T00:50:55.690Z,101327.63
2022-09-04T00:51:36.925Z,101330.22
2022-09-04T00:52:21.186Z,101323.59
2022-09-04T00:53:09.999Z,101324.09
2022-09-04T00:54:00.336Z,101325.63
2022-09-04T00:54:50.187Z,101320.81
2022-09-04T00:55:36.683Z,101323.31
2022-09-04T00:56:30.075Z,101328.22
2022-09-04T00:57:14.101Z,101330.91
2022-09-04T00:57:51.166Z,101326.09
2022-09-04T00:58:28.332Z,101328.31
2022-09-04T00:59:06.785Z,101330.44
2022-09-04T01:00:00.105Z,101334.66
2022-09-04T01:00:31.858Z,101334.41
2022-09-04T01:01:04.369Z,101327.50
2022-09-04T01:01:36.859Z,101325.44
2022-09-04T01:02:28.560Z,101329.19
2022-09-04T01:03:30.200Z,101330.81
2022-09-04T01:04:31.496Z,101330.09
2022-09-04T01:05:27.605Z,101324.97
2022-09-04T01:06:04.075Z,101331.28
2022-09-04T01:06:46.926Z,101335.50
2022-09-04T01:07:40.649Z,101335.63
2022-09-04T01:08:28.491Z,101335.72
2022-09-04T01:09:31.484Z,101340.78
2022-09-04T01:10:19.375Z,101337.97
2022-09-04T01:11:12.478Z,101345.31
2022-09-04T01:12:05.598Z,101347.78
2022-09-04T01:12:51.754Z,101341.81
2022-09-04T01:13:42.216Z,101336.03
2022-09-04T01:14:26.171Z,101341.97
2022-09-04T01:15:14.420Z,101347.47
2022-09-04T01:15:54.810Z,101351.69
2022-09-04T01:16:48.114Z,101344.44
2022-09-04T01:17:36.170Z,101349.22
2022-09-04T01:18:28.160Z,101344.22
2022-09-04T01:19:24.151Z,101349.00
2022-09-04T01:20:21.868Z,101356.09
2022-09-04T01:20:55.925Z,101347.78
2022-09-04T01:21:52.324Z,101346.41
2022-09-04T01:22:48.659Z,101353.16
2022-09-04T01:23:28.847Z,101344.09
2022-09-04T01:24:12.164Z,101351.47
2022-09-04T01:24:55.509Z,101351.78
2022-09-04T01:25:27.034Z,101357.41
2022-09-04T01:26:04.190Z,101351.47
2022-09-04T01:27:04.844Z,101353.91
2022-09-04T01:28:04.976Z,101354.25
2022-09-04T01:29:13.954Z,101358.31
2022-09-04T01:30:04.338Z,101359.13
2022-09-04T01:30:57.466Z,101366.94
2022-09-04T01:31:42.623Z,101362.03
2022-09-04T01:32:24.636Z,101361.44
2022-09-04T01:33:02.038Z,101363.69
2022-09-04T01:33:40.890Z,101357.66
2022-09-04T01:34:33.929Z,101354.94
2022-09-04T01:35:09.330Z,101353.34
2022-09-04T01:35:56.510Z,101358.22
2022-09-04T01:36:37.367Z,101363.69
2022-09-04T01:38:12.020Z,101356.50
2022-09-04T01:38:51.044Z,101355.88
2022-09-04T01:39:25.282Z,101360.22
2022-09-04T01:40:10.143Z,101362.66
2022-09-04T01:40:49.870Z,101357.88
2022-09-04T01:41:27.036Z,101363.72
2022-09-04T01:42:03.825Z,101362.09
2022-09-04T01:42:51.924Z,101361.97
2022-09-04T01:43:24.202Z,101360.69
2022-09-04T01:43:55.883Z,101361.03
2022-09-04T01:44:27.553Z,101361.88
2022-09-04T01:44:59.027Z,101354.13
2022-09-04T01:45:38.148Z,101361.88
2022-09-04T01:46:14.339Z,101362.78
2022-09-04T01:46:48.352Z,101359.50
2022-09-04T01:47:43.489Z,101361.59
2022-09-04T01:48:18.092Z,101362.06
2022-09-04T01:48:49.551Z,101362.06
2022-09-04T01:49:38.923Z,101355.06
2022-09-04T01:50:32.887Z,101359.97
2022-09-04T01:51:14.091Z,101360.22
2022-09-04T01:52:05.727Z,101355.19
2022-09-04T01:53:12.768Z,101350.66
2022-09-04T01:53:46.293Z,101356.59
2022-09-04T01:54:57.134Z,101351.94
2022-09-04T01:55:54.404Z,101358.22
2022-09-04T01:56:33.307Z,101353.44
2022-09-04T01:57:07.925Z,101359.38
2022-09-04T01:57:54.195Z,101361.97
2022-09-04T01:58:43.513Z,101365.00
2022-09-04T01:59:28.694Z,101367.22
2022-09-04T02:00:12.061Z,101364.88
2022-09-04T02:00:59.281Z,101364.41
2022-09-04T02:02:09.321Z,101365.31
2022-09-04T02:03:02.546Z,101365.94
2022-09-04T02:04:12.013Z,101371.13
2022-09-04T02:05:06.350Z,101368.91
2022-09-04T02:06:01.777Z,101370.69
2022-09-04T02:06:43.342Z,101374.41
2022-09-04T02:07:25.928Z,101375.00
2022-09-04T02:08:12.159Z,101362.44
2022-09-04T02:08:57.014Z,101366.03
2022-09-04T02:09:40.428Z,101365.22
2022-09-04T02:10:11.969Z,101371.88
2022-09-04T02:10:46.415Z,101367.91
2022-09-04T02:11:17.883Z,101369.53
2022-09-04T02:11:59.355Z,101366.63
2022-09-04T02:13:08.351Z,101368.03
2022-09-04T02:14:09.277Z,101370.59
2022-09-04T02:14:51.112Z,101366.75
2022-09-04T02:15:26.964Z,101373.28
2022-09-04T02:16:23.365Z,101375.38
2022-09-04T02:17:32.935Z,101372.69
2022-09-04T02:18:33.501Z,101373.03
2022-09-04T02:19:30.773Z,101377.94
2022-09-04T02:20:13.566Z,101382.22
2022-09-04T02:21:08.207Z,101386.69
2022-09-04T02:21:51.553Z,101389.84
2022-09-04T02:22:45.017Z,101386.09
2022-09-04T02:23:37.671Z,101393.81
2022-09-04T02:24:17.967Z,101390.78
2022-09-04T02:25:01.567Z,101394.97
2022-09-04T02:25:44.265Z,101387.53
2022-09-04T02:26:30.537Z,101390.41
2022-09-04T02:27:24.838Z,101388.19
2022-09-04T02:28:25.841Z,101395.66
2022-09-04T02:29:45.039Z,101398.69
2022-09-04T02:30:18.690Z,101388.75
2022-09-04T02:30:59.128Z,101393.06
2022-09-04T02:31:39.082Z,101395.16
2022-09-04T02:32:19.571Z,101392.81
2022-09-04T02:33:15.577Z,101391.06
2022-09-04T02:33:58.216Z,101393.28
2022-09-04T02:34:45.231Z,101387.63
2022-09-04T02:35:23.793Z,101376.09
2022-09-04T02:36:02.439Z,101379.47
2022-09-04T02:36:57.786Z,101380.47
2022-09-04T02:37:37.659Z,101382.13
2022-09-04T02:38:44.858Z,101388.84
2022-09-04T02:39:28.298Z,101387.91
2022-09-04T02:40:37.702Z,101388.22
2022-09-04T02:41:19.595Z,101383.38
2022-09-04T02:41:55.047Z,101392.69
2022-09-04T02:42:54.098Z,101386.03
2022-09-04T02:43:42.722Z,101385.00
2022-09-04T02:44:23.759Z,101382.53
2022-09-04T02:45:10.019Z,101380.81
2022-09-04T02:45:50.819Z,101386.53
2022-09-04T02:46:30.867Z,101385.34
2022-09-04T02:47:12.316Z,101390.25
2022-09-04T02:48:13.365Z,101387.69
2022-09-04T02:49:13.298Z,101387.16
2022-09-04T02:50:00.886Z,101388.31
2022-09-04T02:51:03.142Z,101386.97
2022-09-04T02:52:01.806Z,101393.56
2022-09-04T02:53:18.223Z,101395.19
2022-09-04T02:53:49.941Z,101383.41
2022-09-04T02:54:40.921Z,101393.09
2022-09-04T02:55:30.747Z,101395.50
2022-09-04T02:56:14.072Z,101393.25
2022-09-04T02:57:14.982Z,101395.97
2022-09-04T02:57:58.388Z,101397.38
2022-09-04T02:58:50.130Z,101397.78
2022-09-04T02:59:33.163Z,101389.06
2022-09-04T03:00:20.073Z,101394.69
2022-09-04T03:01:22.650Z,101406.13
2022-09-04T03:01:59.355Z,101401.69
2022-09-04T03:03:00.756Z,101407.84
2022-09-04T03:03:40.806Z,101403.69
2022-09-04T03:04:22.634Z,101408.44
2022-09-04T03:05:20.235Z,101400.50
2022-09-04T03:06:13.483Z,101402.28
2022-09-04T03:06:55.115Z,101408.69
2022-09-04T03:07:36.880Z,101411.22
2022-09-04T03:08:19.754Z,101411.44
2022-09-04T03:09:03.164Z,101403.63
2022-09-04T03:09:47.617Z,101402.59
2022-09-04T03:10:23.185Z,101408.53
2022-09-04T03:11:00.440Z,101410.72
2022-09-04T03:11:49.033Z,101406.41
2022-09-04T03:12:37.609Z,101407.22
2022-09-04T03:13:41.196Z,101405.13
2022-09-04T03:14:15.350Z,101408.41
2022-09-04T03:14:54.911Z,101409.91
2022-09-04T03:15:36.503Z,101409.31
2022-09-04T03:16:17.474Z,101410.94
2022-09-04T03:17:00.025Z,101409.81
2022-09-04T03:18:06.906Z,101410.31
2022-09-04T03:18:53.527Z,101410.53
2022-09-04T03:19:36.351Z,101410.31
2022-09-04T03:20:22.758Z,101405.78
2022-09-04T03:21:01.076Z,101415.16
2022-09-04T03:21:41.425Z,101413.09
2022-09-04T03:22:40.087Z,101415.75
2022-09-04T03:23:29.727Z,101409.13
2022-09-04T03:24:07.648Z,101411.00
2022-09-04T03:25:00.237Z,101410.31
2022-09-04T03:25:34.247Z,101409.25
2022-09-04T03:26:24.235Z,101410.63
2022-09-04T03:26:59.722Z,101416.56
2022-09-04T03:27:33.065Z,101410.75
2022-09-04T03:28:09.118Z,101410.91
2022-09-04T03:29:16.246Z,101412.06
2022-09-04T03:29:57.867Z,101397.94
2022-09-04T03:30:32.361Z,101407.25
2022-09-04T03:31:27.347Z,101406.66
2022-09-04T03:32:15.137Z,101407.84
2022-09-04T03:32:54.549Z,101408.53
2022-09-04T03:33:35.652Z,101411.34
2022-09-04T03:34:25.232Z,101412.97
2022-09-04T03:35:04.979Z,101408.94
2022-09-04T03:36:11.723Z,101410.81
2022-09-04T03:37:12.250Z,101415.50
2022-09-04T03:37:56.686Z,101414.47
2022-09-04T03:38:57.199Z,101420.72
2022-09-04T03:39:36.787Z,101412.31
2022-09-04T03:40:23.451Z,101414.16
2022-09-04T03:41:25.210Z,101410.66
2022-09-04T03:42:05.179Z,101416.03
2022-09-04T03:42:46.783Z,101414.03
2022-09-04T03:43:33.548Z,101410.00
2022-09-04T03:44:22.983Z,101415.50
2022-09-04T03:45:20.110Z,101409.94
2022-09-04T03:46:16.164Z,101407.28
2022-09-04T03:47:00.183Z,101414.50
2022-09-04T03:48:00.821Z,101415.97
2022-09-04T03:48:53.565Z,101414.53
2022-09-04T03:49:47.891Z,101412.31
2022-09-04T03:50:47.270Z,101407.03
2022-09-04T03:51:46.063Z,101409.13
2022-09-04T03:52:45.939Z,101412.03
2022-09-04T03:53:32.531Z,101421.94
2022-09-04T03:54:24.094Z,101417.97
2022-09-04T03:55:13.164Z,101410.41
2022-09-04T03:55:44.967Z,101418.44
2022-09-04T03:56:31.411Z,101416.13
2022-09-04T03:57:12.014Z,101410.03
2022-09-04T03:58:06.747Z,101414.22
2022-09-04T03:59:11.231Z,101415.25
2022-09-04T03:59:58.974Z,101418.53
2022-09-04T04:00:40.576Z,101410.41
2022-09-04T04:01:25.126Z,101420.88
2022-09-04T04:02:19.134Z,101422.75
2022-09-04T04:03:03.063Z,101415.41
2022-09-04T04:04:00.373Z,101416.84
2022-09-04T04:04:44.655Z,101427.28
2022-09-04T04:05:40.490Z,101419.72
2022-09-04T04:06:23.572Z,101419.47
2022-09-04T04:07:22.622Z,101420.31
2022-09-04T04:08:12.495Z,101421.44
2022-09-04T04:08:59.287Z,101421.81
2022-09-04T04:09:40.369Z,101426.56
2022-09-04T04:11:00.816Z,101425.38
2022-09-04T04:11:43.760Z,101436.81
2022-09-04T04:12:33.232Z,101428.94
2022-09-04T04:13:23.084Z,101437.56
2022-09-04T04:14:04.354Z,101436.81
2022-09-04T04:14:52.112Z,101435.66
2022-09-04T04:15:48.359Z,101432.78
2022-09-04T04:16:40.486Z,101431.59
2022-09-04T04:17:22.586Z,101432.50
2022-09-04T04:18:13.384Z,101433.41
2022-09-04T04:19:02.944Z,101433.13
2022-09-04T04:20:03.115Z,101441.75
2022-09-04T04:20:52.428Z,101442.56
2022-09-04T04:21:55.985Z,101444.25
2022-09-04T04:22:30.059Z,101439.34
2022-09-04T04:23:04.148Z,101448.78
2022-09-04T04:23:47.544Z,101442.59
2022-09-04T04:24:48.119Z,101440.97
2022-09-04T04:25:33.251Z,101447.09
2022-09-04T04:26:08.934Z,101449.19
2022-09-04T04:26:57.419Z,101445.88
2022-09-04T04:27:35.981Z,101450.81
2022-09-04T04:28:23.703Z,101454.34
2022-09-04T04:29:42.784Z,101457.03
2022-09-04T04:30:17.623Z,101459.94
2022-09-04T04:30:54.631Z,101456.22
2022-09-04T04:32:10.946Z,101458.66
2022-09-04T04:32:50.295Z,101456.56
2022-09-04T04:33:25.700Z,101453.47
2022-09-04T04:34:21.735Z,101458.44
2022-09-04T04:35:28.526Z,101458.38
2022-09-04T04:36:27.245Z,101460.66
2022-09-04T04:37:09.076Z,101464.69
2022-09-04T04:37:51.713Z,101463.72
2022-09-04T04:38:44.695Z,101461.50
2022-09-04T04:39:18.938Z,101464.16
2022-09-04T04:39:59.382Z,101468.03
2022-09-04T04:40:49.297Z,101459.34
2022-09-04T04:41:30.857Z,101465.72
2022-09-04T04:42:07.764Z,101466.09
2022-09-04T04:42:53.306Z,101460.66
2022-09-04T04:43:32.879Z,101466.63
2022-09-04T04:44:14.773Z,101463.13
2022-09-04T04:45:29.917Z,101467.38
2022-09-04T04:46:10.638Z,101467.13
2022-09-04T04:47:07.360Z,101465.91
2022-09-04T04:48:26.351Z,101473.06
2022-09-04T04:49:04.417Z,101472.84
2022-09-04T04:50:00.335Z,101472.13
2022-09-04T04:50:47.745Z,101470.22
2022-09-04T04:51:43.706Z,101471.44
2022-09-04T04:52:23.386Z,101468.75
2022-09-04T04:53:30.459Z,101467.16
2022-09-04T04:54:13.955Z,101476.28
2022-09-04T04:55:06.362Z,101473.53
2022-09-04T04:55:50.559Z,101476.50
2022-09-04T04:56:49.900Z,101471.75
2022-09-04T04:57:27.115Z,101474.22
2022-09-04T04:58:11.420Z,101482.53
2022-09-04T04:58:53.888Z,101477.63
2022-09-04T04:59:34.216Z,101477.00
2022-09-04T05:00:12.255Z,101474.56
2022-09-04T05:00:48.695Z,101477.41
2022-09-04T05:01:22.906Z,101480.09
2022-09-04T05:02:09.216Z,101479.63
2022-09-04T05:02:51.666Z,101484.16
2022-09-04T05:03:37.782Z,101483.72
2022-09-04T05:04:30.024Z,101484.91
2022-09-04T05:05:18.403Z,101484.16
2022-09-04T05:05:59.602Z,101487.38
2022-09-04T05:06:41.703Z,101483.81
2022-09-04T05:07:37.288Z,101487.59
2022-09-04T05:08:18.610Z,101487.00
2022-09-04T05:09:05.951Z,101498.69
2022-09-04T05:09:58.583Z,101496.22
2022-09-04T05:10:35.547Z,101491.00
2022-09-04T05:11:19.370Z,101494.03
2022-09-04T05:12:06.627Z,101491.25
2022-09-04T05:13:06.050Z,101501.06
2022-09-04T05:14:05.151Z,101496.44
2022-09-04T05:15:00.038Z,101496.59
2022-09-04T05:16:07.330Z,101501.91
2022-09-04T05:16:56.024Z,101498.19
2022-09-04T05:17:46.370Z,101501.06
2022-09-04T05:18:47.075Z,101501.56
2022-09-04T05:19:38.639Z,101494.44
2022-09-04T05:20:39.628Z,101496.88
2022-09-04T05:21:21.716Z,101501.63
2022-09-04T05:21:58.862Z,101504.41
2022-09-04T05:22:44.580Z,101507.19
2022-09-04T05:23:33.809Z,101508.47
2022-09-04T05:24:18.122Z,101515.81
2022-09-04T05:25:17.037Z,101515.16
2022-09-04T05:25:57.868Z,101502.50
2022-09-04T05:26:33.681Z,101515.22
2022-09-04T05:27:31.077Z,101515.69
2022-09-04T05:28:22.023Z,101518.50
2022-09-04T05:29:35.331Z,101515.41
2022-09-04T05:30:18.616Z,101515.78
2022-09-04T05:31:04.965Z,101516.16
2022-09-04T05:31:45.466Z,101520.84
2022-09-04T05:32:28.667Z,101512.94
2022-09-04T05:33:31.779Z,101512.13
2022-09-04T05:34:24.998Z,101519.56
2022-09-04T05:35:07.024Z,101515.75
2022-09-04T05:35:50.111Z,101517.16
2022-09-04T05:36:37.414Z,101520.91
2022-09-04T05:37:22.602Z,101517.94
2022-09-04T05:38:10.695Z,101522.13
2022-09-04T05:38:54.322Z,101520.78
2022-09-04T05:39:31.185Z,101523.97
2022-09-04T05:40:23.409Z,101523.41
2022-09-04T05:41:15.221Z,101524.16
2022-09-04T05:42:06.792Z,101524.56
2022-09-04T05:42:54.072Z,101522.09
2022-09-04T05:43:34.597Z,101517.44
2022-09-04T05:44:19.375Z,101521.31
2022-09-04T05:45:01.426Z,101512.81
2022-09-04T05:45:37.495Z,101522.13
2022-09-04T05:46:13.610Z,101515.41
2022-09-04T05:46:52.030Z,101516.44
2022-09-04T05:47:43.959Z,101513.66
2022-09-04T05:48:26.215Z,101516.69
2022-09-04T05:49:10.090Z,101517.28
2022-09-04T05:50:00.497Z,101517.88
2022-09-04T05:50:54.414Z,101521.59
2022-09-04T05:51:49.722Z,101517.78
2022-09-04T05:52:59.835Z,101521.31
2022-09-04T05:53:42.954Z,101517.16
2022-09-04T05:54:21.983Z,101518.66
2022-09-04T05:55:07.847Z,101524.84
2022-09-04T05:56:03.662Z,101526.47
2022-09-04T05:56:51.814Z,101517.94
2022-09-04T05:57:47.247Z,101520.84
2022-09-04T05:58:39.619Z,101512.47
2022-09-04T05:59:30.811Z,101525.66
2022-09-04T06:00:08.537Z,101524.38
2022-09-04T06:01:06.135Z,101526.09
2022-09-04T06:01:59.519Z,101534.50
2022-09-04T06:02:55.421Z,101529.13
2022-09-04T06:03:44.168Z,101533.47
2022-09-04T06:05:00.322Z,101533.56
2022-09-04T06:05:58.430Z,101538.03
2022-09-04T06:06:54.156Z,101534.63
2022-09-04T06:07:35.807Z,101539.53
2022-09-04T06:08:39.627Z,101538.44
2022-09-04T06:09:23.032Z,101537.59
2022-09-04T06:10:03.523Z,101536.22
2022-09-04T06:10:45.549Z,101536.16
2022-09-04T06:11:44.584Z,101530.06
2022-09-04T06:12:21.771Z,101538.38
2022-09-04T06:13:08.070Z,101538.88
2022-09-04T06:14:04.585Z,101533.50
2022-09-04T06:14:54.455Z,101525.47
2022-09-04T06:15:38.024Z,101525.63
2022-09-04T06:16:38.155Z,101519.69
2022-09-04T06:17:22.787Z,101517.19
2022-09-04T06:18:03.315Z,101514.06
2022-09-04T06:18:47.664Z,101517.84
2022-09-04T06:19:33.127Z,101508.81
2022-09-04T06:20:46.130Z,101516.09
2022-09-04T06:21:38.815Z,101517.06
2022-09-04T06:22:32.160Z,101521.44
2022-09-04T06:23:18.090Z,101506.25
2022-09-04T06:24:04.394Z,101514.56
2022-09-04T06:24:57.055Z,101517.94
2022-09-04T06:26:07.066Z,101518.94
2022-09-04T06:27:02.704Z,101529.34
2022-09-04T06:27:46.176Z,101523.09
2022-09-04T06:28:36.331Z,101525.88
2022-09-04T06:29:17.067Z,101525.31
2022-09-04T06:30:09.443Z,101523.69
2022-09-04T06:30:51.539Z,101516.78
2022-09-04T06:31:23.103Z,101513.22
2022-09-04T06:32:29.948Z,101516.84
2022-09-04T06:33:19.895Z,101510.38
2022-09-04T06:33:58.863Z,101520.03
2022-09-04T06:34:33.292Z,101523.06
2022-09-04T06:35:33.040Z,101517.94
2022-09-04T06:36:15.991Z,101528.53
2022-09-04T06:37:21.600Z,101518.47
2022-09-04T06:38:11.878Z,101521.75
2022-09-04T06:39:01.734Z,101520.69
2022-09-04T06:39:59.914Z,101524.44
2022-09-04T06:40:45.026Z,101524.94
2022-09-04T06:41:25.262Z,101530.06
2022-09-04T06:42:21.649Z,101535.81
2022-09-04T06:43:11.754Z,101531.19
2022-09-04T06:43:48.669Z,101529.22
2022-09-04T06:44:54.649Z,101525.03
2022-09-04T06:46:02.373Z,101530.22
2022-09-04T06:46:40.583Z,101532.03
2022-09-04T06:47:32.923Z,101527.22
2022-09-04T06:48:22.879Z,101534.31
2022-09-04T06:49:22.441Z,101529.94
2022-09-04T06:49:59.670Z,101525.59
2022-09-04T06:50:39.159Z,101530.81
2022-09-04T06:51:19.248Z,101537.81
2022-09-04T06:52:14.191Z,101538.09
2022-09-04T06:53:22.554Z,101535.84
2022-09-04T06:53:57.040Z,101534.44
2022-09-04T06:54:46.098Z,101533.34
2022-09-04T06:55:30.665Z,101534.63
2022-09-04T06:56:30.984Z,101541.44
2022-09-04T06:57:11.903Z,101538.69
2022-09-04T06:57:43.551Z,101532.59
2022-09-04T06:58:51.846Z,101543.44
2022-09-04T06:59:53.963Z,101540.81
2022-09-04T07:00:27.183Z,101541.28
2022-09-04T07:01:05.699Z,101551.84
2022-09-04T07:01:49.274Z,101546.78
2022-09-04T07:02:57.364Z,101547.59
2022-09-04T07:03:38.290Z,101552.63
2022-09-04T07:04:32.927Z,101546.09
2022-09-04T07:05:18.086Z,101543.03
2022-09-04T07:06:12.367Z,101543.94
2022-09-04T07:07:06.376Z,101544.28
2022-09-04T07:07:49.788Z,101546.47
2022-09-04T07:08:39.141Z,101539.41
2022-09-04T07:09:23.471Z,101540.59
2022-09-04T07:10:01.541Z,101527.25
2022-09-04T07:10:35.978Z,101533.53
2022-09-04T07:11:13.596Z,101537.47
2022-09-04T07:12:14.637Z,101539.31
2022-09-04T07:13:23.644Z,101543.72
2022-09-04T07:14:17.262Z,101545.75
2022-09-04T07:15:07.413Z,101543.09
2022-09-04T07:15:44.763Z,101545.75
2022-09-04T07:16:39.515Z,101543.81
2022-09-04T07:17:13.604Z,101555.59
2022-09-04T07:18:14.599Z,101552.50
2022-09-04T07:19:10.625Z,101549.44
2022-09-04T07:20:06.604Z,101548.88
2022-09-04T07:20:59.546Z,101555.94
2022-09-04T07:21:52.249Z,101548.84
2022-09-04T07:22:36.307Z,101541.47
2022-09-04T07:23:14.206Z,101544.06
2022-09-04T07:24:03.677Z,101558.59
2022-09-04T07:24:43.874Z,101552.97
2022-09-04T07:25:26.215Z,101553.13
2022-09-04T07:26:06.282Z,101549.50
2022-09-04T07:26:56.323Z,101546.38
2022-09-04T07:27:48.362Z,101553.19
2022-09-04T07:28:31.023Z,101549.88
2022-09-04T07:29:25.109Z,101547.94
2022-09-04T07:30:15.148Z,101546.53
2022-09-04T07:30:55.821Z,101545.69
2022-09-04T07:31:53.013Z,101552.56
2022-09-04T07:32:56.456Z,101547.03
2022-09-04T07:33:35.551Z,101551.47
2022-09-04T07:34:31.568Z,101550.88
2022-09-04T07:35:09.035Z,101548.25
2022-09-04T07:35:54.355Z,101551.88
2022-09-04T07:36:33.435Z,101550.47
2022-09-04T07:37:27.756Z,101554.19
2022-09-04T07:38:19.034Z,101550.69
2022-09-04T07:39:03.110Z,101551.94
2022-09-04T07:39:39.370Z,101556.16
2022-09-04T07:40:17.844Z,101554.63
2022-09-04T07:41:02.633Z,101550.22
2022-09-04T07:41:57.130Z,101555.44
2022-09-04T07:42:31.800Z,101561.06
2022-09-04T07:43:09.913Z,101562.84
2022-09-04T07:44:17.204Z,101563.16
2022-09-04T07:45:08.203Z,101557.31
2022-09-04T07:45:51.331Z,101559.09
2022-09-04T07:46:35.783Z,101562.56
2022-09-04T07:47:14.626Z,101557.78
2022-09-04T07:47:55.243Z,101554.91
2022-09-04T07:48:50.282Z,101551.44
2022-09-04T07:49:29.374Z,101551.06
2022-09-04T07:50:09.369Z,101557.53
2022-09-04T07:51:03.321Z,101556.19
2022-09-04T07:51:41.755Z,101553.47
2022-09-04T07:52:27.077Z,101556.78
2022-09-04T07:53:19.881Z,101561.97
2022-09-04T07:54:11.561Z,101559.41
2022-09-04T07:55:31.793Z,101563.75
2022-09-04T07:56:45.317Z,101563.88
2022-09-04T07:57:38.820Z,101562.81
2022-09-04T07:58:31.576Z,101563.19
2022-09-04T07:59:29.303Z,101561.69
2022-09-04T08:00:10.278Z,101570.53
2022-09-04T08:01:08.989Z,101567.41
2022-09-04T08:02:04.478Z,101561.75
2022-09-04T08:02:49.423Z,101563.59
2022-09-04T08:03:32.689Z,101558.03
2022-09-04T08:04:38.169Z,101566.09
2022-09-04T08:05:30.210Z,101561.03
2022-09-04T08:06:15.146Z,101564.53
2022-09-04T08:06:50.208Z,101565.22
2022-09-04T08:07:48.683Z,101559.63
2022-09-04T08:08:50.610Z,101564.66
2022-09-04T08:09:57.037Z,101564.53
2022-09-04T08:11:00.723Z,101571.28
2022-09-04T08:11:53.436Z,101572.34
2022-09-04T08:12:29.323Z,101571.00
2022-09-04T08:13:22.820Z,101573.38
2022-09-04T08:14:19.752Z,101572.91
2022-09-04T08:14:55.255Z,101573.16
2022-09-04T08:15:47.410Z,101573.50
2022-09-04T08:16:28.556Z,101573.41
2022-09-04T08:17:25.224Z,101577.41
2022-09-04T08:18:11.306Z,101584.66
2022-09-04T08:19:15.677Z,101572.59
2022-09-04T08:20:04.650Z,101575.66
2022-09-04T08:20:43.396Z,101572.59
2022-09-04T08:21:17.442Z,101579.25
2022-09-04T08:21:50.019Z,101577.47
2022-09-04T08:22:40.139Z,101582.50
2022-09-04T08:23:42.544Z,101585.91
2022-09-04T08:24:53.564Z,101578.63
2022-09-04T08:25:30.062Z,101578.31
2022-09-04T08:26:14.192Z,101576.84
2022-09-04T08:27:26.701Z,101583.13
2022-09-04T08:28:24.489Z,101577.50
2022-09-04T08:29:14.471Z,101593.38
2022-09-04T08:30:04.202Z,101596.72
2022-09-04T08:30:42.397Z,101592.88
2022-09-04T08:31:31.959Z,101596.09
2022-09-04T08:32:22.291Z,101595.09
2022-09-04T08:33:31.250Z,101600.59
2022-09-04T08:34:24.003Z,101591.19
2022-09-04T08:35:18.035Z,101591.78
2022-09-04T08:36:11.943Z,101598.50
2022-09-04T08:37:11.290Z,101598.66
2022-09-04T08:37:54.752Z,101606.16
2022-09-04T08:38:34.835Z,101595.31
2022-09-04T08:39:10.112Z,101602.25
2022-09-04T08:40:09.291Z,101603.00
2022-09-04T08:40:46.898Z,101598.81
2022-09-04T08:41:55.851Z,101600.94
2022-09-04T08:42:34.745Z,101603.88
2022-09-04T08:43:21.027Z,101602.66
2022-09-04T08:44:09.586Z,101596.84
2022-09-04T08:45:03.176Z,101602.75
2022-09-04T08:45:47.782Z,101604.47
2022-09-04T08:46:34.532Z,101605.00
2022-09-04T08:47:18.214Z,101605.13
2022-09-04T08:48:04.636Z,101611.41
2022-09-04T08:48:38.776Z,101606.31
2022-09-04T08:49:30.699Z,101602.59
2022-09-04T08:50:25.694Z,101606.44
2022-09-04T08:51:24.017Z,101604.19
2022-09-04T08:52:32.240Z,101599.03
2022-09-04T08:53:18.734Z,101604.84
2022-09-04T08:54:08.908Z,101605.53
2022-09-04T08:55:03.170Z,101605.13
2022-09-04T08:56:11.637Z,101604.00
2022-09-04T08:56:53.218Z,101607.16
2022-09-04T08:57:52.170Z,101599.25
2022-09-04T08:58:48.292Z,101603.31
2022-09-04T08:59:22.622Z,101609.78
2022-09-04T09:00:38.688Z,101606.53
2022-09-04T09:01:32.866Z,101604.84
2022-09-04T09:02:26.275Z,101609.31
2022-09-04T09:03:00.459Z,101605.25
2022-09-04T09:03:37.987Z,101606.03
2022-09-04T09:04:24.663Z,101608.84
2022-09-04T09:05:28.151Z,101600.63
2022-09-04T09:06:38.379Z,101603.41
2022-09-04T09:07:31.299Z,101609.19
2022-09-04T09:08:29.707Z,101607.34
2022-09-04T09:09:27.663Z,101608.25
2022-09-04T09:10:09.427Z,101607.75
2022-09-04T09:11:03.315Z,101608.09
2022-09-04T09:12:02.542Z,101606.19